Normed Antwerpen — V2DG9 — position and weather

sailwx.info

Track history (hours):
 
Tides and Currents Weather Stations Pressure Air Temp Water Temp Dewpoint Dewpoint Depression Visibility Wind Speed Wind Dir Waves Ship Positions

Normed Antwerpen

Last reported at 2017-Aug-18 01:30 UTC. Time now 2017-Aug-18 02:53 UTC.
Position N 37°42' E 010°22'.

Length 128 m; draft 6.5 m.

Type: Cargo ship. MMSI: 255805824.

Date/timePositionNaut miles runAvg speedWind from/ knotsBaromVisibWave heightAir tempDewpointWater temp
2017-Aug-18 01:30N 37°42' E 010°22'713.5
2017-Aug-18 00:59N 37°45' E 010°14'3813.7
2017-Aug-17 22:13N 38°07' E 009°35'313.5
2017-Aug-17 21:59N 38°09' E 009°32'1613.4
2017-Aug-17 20:46N 38°18' E 009°15'613.5
2017-Aug-17 20:19N 38°22' E 009°09'413.6
2017-Aug-17 20:00N 38°24' E 009°04'713.7
2017-Aug-17 19:30N 38°28' E 008°57'713.7
2017-Aug-17 18:59N 38°33' E 008°50'713.5
2017-Aug-17 18:28N 38°37' E 008°43'613.3
2017-Aug-17 18:00N 38°40' E 008°36'1813.2
2017-Aug-17 16:38N 38°51' E 008°18'213.2
2017-Aug-17 16:29N 38°53' E 008°16'713.1
2017-Aug-17 15:55N 38°59' E 008°11'1412.4
2017-Aug-17 14:46N 39°12' E 008°05'312.4
2017-Aug-17 14:30N 39°16' E 008°05'612.0
2017-Aug-17 13:58N 39°22' E 008°04'712.8
2017-Aug-17 13:23N 39°29' E 008°02'512.9
2017-Aug-17 12:57N 39°35' E 008°01'713.0
2017-Aug-17 12:24N 39°42' E 008°00'2812.9
2017-Aug-17 10:13N 40°10' E 007°55'312.8
2017-Aug-17 09:56N 40°13' E 007°55'2113.4
2017-Aug-17 08:22N 40°34' E 007°51'614.1
2017-Aug-17 07:59N 40°40' E 007°50'11513.5
2017-Aug-16 23:29N 42°34' E 007°31'813.0
2017-Aug-16 22:52N 42°42' E 007°29'613.0
2017-Aug-16 22:26N 42°47' E 007°28'613.1
2017-Aug-16 22:00N 42°53' E 007°27'713.2
2017-Aug-16 21:30N 42°60' E 007°26'613.2
2017-Aug-16 21:00N 43°06' E 007°25'713.2
2017-Aug-16 20:30N 43°13' E 007°24'713.5
2017-Aug-16 20:00N 43°19' E 007°23'813.6
2017-Aug-16 19:24N 43°28' E 007°21'513.7
2017-Aug-16 19:00N 43°33' E 007°20'713.3
2017-Aug-16 18:29N 43°40' E 007°19'2 0.4
2017-Aug-16 13:25N 43°42' E 007°19'0 0.0
2017-Aug-16 12:58N 43°42' E 007°19'0 0.1
2017-Aug-16 11:21N 43°41' E 007°19'0 0.0
2017-Aug-16 10:03N 43°41' E 007°19'0 0.0
2017-Aug-16 10:00N 43°41' E 007°19'0 0.0
2017-Aug-16 09:15N 43°41' E 007°19'0 0.0
2017-Aug-16 08:44N 43°41' E 007°19'0 0.0
2017-Aug-16 04:00N 43°41' E 007°19'0 0.0
2017-Aug-16 03:30N 43°41' E 007°19'0 0.0
2017-Aug-16 02:42N 43°41' E 007°19'0 0.0
2017-Aug-16 02:30N 43°41' E 007°19'0 0.0
2017-Aug-16 01:53N 43°41' E 007°19'0 0.0
2017-Aug-15 20:48N 43°42' E 007°19'0 0.0
2017-Aug-15 20:30N 43°42' E 007°19'0 0.1
2017-Aug-15 19:42N 43°41' E 007°19'0 0.1
2017-Aug-15 19:20N 43°41' E 007°19'0 0.0
2017-Aug-15 18:59N 43°41' E 007°19'2 1.8
2017-Aug-15 18:02N 43°40' E 007°17'0 3.8
2017-Aug-15 17:55N 43°40' E 007°17'410.5
2017-Aug-15 17:30N 43°35' E 007°17'611.9
2017-Aug-15 17:01N 43°30' E 007°16'611.5
2017-Aug-15 16:30N 43°25' E 007°11'611.5
2017-Aug-15 16:00N 43°21' E 007°05'611.5
2017-Aug-15 15:30N 43°17' E 006°60'611.4
2017-Aug-15 15:00N 43°13' E 006°54'611.6
2017-Aug-15 14:30N 43°09' E 006°49'611.6
2017-Aug-15 14:00N 43°05' E 006°43'611.5
2017-Aug-15 13:30N 43°00' E 006°38'611.5
2017-Aug-15 13:00N 42°56' E 006°32'611.4
2017-Aug-15 12:30N 42°52' E 006°27'714.3
2017-Aug-15 12:00N 42°47' E 006°20'714.9
2017-Aug-15 11:30N 42°42' E 006°13'714.4
2017-Aug-15 11:00N 42°36' E 006°06'612.5
2017-Aug-15 10:30N 42°32' E 006°01'612.4
2017-Aug-15 10:00N 42°28' E 005°55'612.3
2017-Aug-15 09:30N 42°23' E 005°49'612.4
2017-Aug-15 09:00N 42°19' E 005°43'612.5
2017-Aug-15 08:30N 42°14' E 005°37'612.7
2017-Aug-15 08:00N 42°10' E 005°31'713.1
2017-Aug-15 07:31N 42°05' E 005°25'612.5
2017-Aug-15 07:00N 42°00' E 005°19'612.6
2017-Aug-15 06:30N 41°56' E 005°13'612.7
2017-Aug-15 06:00N 41°51' E 005°08'612.8
2017-Aug-15 05:31N 41°47' E 005°02'713.0
2017-Aug-15 05:00N 41°42' E 004°55'612.8
2017-Aug-15 04:30N 41°37' E 004°50'612.5
2017-Aug-15 04:00N 41°33' E 004°44'712.7
2017-Aug-15 03:28N 41°28' E 004°37'612.8
2017-Aug-15 03:00N 41°24' E 004°32'612.7
2017-Aug-15 02:30N 41°19' E 004°26'612.7
2017-Aug-15 02:00N 41°15' E 004°20'812.8
2017-Aug-15 01:21N 41°08' E 004°12'513.1
2017-Aug-15 00:58N 41°05' E 004°08'713.1
2017-Aug-15 00:27N 41°00' E 004°02'1012.9
2017-Aug-14 23:39N 40°52' E 003°52'712.7
2017-Aug-14 23:06N 40°48' E 003°46'112.6
2017-Aug-14 23:00N 40°47' E 003°45'2412.4
2017-Aug-14 21:05N 40°30' E 003°23'212.4
2017-Aug-14 20:55N 40°28' E 003°21'512.4
2017-Aug-14 20:30N 40°24' E 003°16'712.5
2017-Aug-14 19:58N 40°19' E 003°10'612.4
2017-Aug-14 19:30N 40°15' E 003°05'612.4
2017-Aug-14 19:00N 40°11' E 002°59'612.1
2017-Aug-14 18:30N 40°07' E 002°54'612.4
2017-Aug-14 18:00N 40°02' E 002°48'612.7
2017-Aug-14 17:30N 39°57' E 002°42'613.0
2017-Aug-14 17:01N 39°53' E 002°36'713.0
2017-Aug-14 16:30N 39°48' E 002°31'713.0
2017-Aug-14 15:57N 39°43' E 002°24'612.8
2017-Aug-14 15:31N 39°39' E 002°19'611.9
2017-Aug-14 14:59N 39°33' E 002°16'612.8
2017-Aug-14 14:30N 39°29' E 002°22'612.6
2017-Aug-14 14:00N 39°26' E 002°29'510.6
2017-Aug-14 13:30N 39°28' E 002°35'611.3
2017-Aug-14 13:00N 39°33' E 002°39'1 1.7
2017-Aug-14 12:28N 39°33' E 002°38'0 0.0
2017-Aug-14 11:55N 39°33' E 002°38'0 0.0
2017-Aug-14 11:28N 39°33' E 002°38'0 0.0
2017-Aug-14 11:00N 39°33' E 002°38'0 0.0
2017-Aug-14 10:30N 39°33' E 002°38'0 0.0
2017-Aug-14 10:00N 39°33' E 002°38'0 0.0
2017-Aug-14 09:30N 39°33' E 002°38'0 0.0
2017-Aug-14 09:00N 39°33' E 002°38'0 0.0
2017-Aug-14 08:29N 39°33' E 002°38'0 0.0
2017-Aug-14 07:59N 39°33' E 002°38'0 0.0
2017-Aug-14 07:29N 39°33' E 002°38'0 0.0
2017-Aug-14 06:59N 39°33' E 002°38'0 0.0
2017-Aug-14 06:28N 39°33' E 002°38'0 0.0
2017-Aug-14 05:58N 39°33' E 002°38'0 0.0
2017-Aug-14 05:28N 39°33' E 002°38'0 0.0
2017-Aug-14 04:58N 39°33' E 002°38'0 0.0
2017-Aug-14 04:28N 39°33' E 002°38'0 0.0
2017-Aug-14 04:00N 39°33' E 002°38'0 0.0
2017-Aug-14 03:30N 39°33' E 002°38'0 0.0
2017-Aug-14 03:00N 39°33' E 002°38'0 0.0
2017-Aug-14 02:30N 39°33' E 002°38'0 0.0
2017-Aug-14 02:00N 39°33' E 002°38'0 0.0
2017-Aug-14 01:29N 39°33' E 002°38'0 0.0
2017-Aug-14 00:59N 39°33' E 002°38'0 0.0
2017-Aug-14 00:29N 39°33' E 002°38'0 0.0
2017-Aug-14 00:00N 39°33' E 002°38'1 2.3
2017-Aug-13 23:30N 39°33' E 002°39'5 9.3
2017-Aug-13 23:00N 39°29' E 002°37'612.3
2017-Aug-13 22:30N 39°24' E 002°33'612.3
2017-Aug-13 22:00N 39°19' E 002°28'612.3
2017-Aug-13 21:30N 39°14' E 002°22'612.4
2017-Aug-13 21:00N 39°10' E 002°17'612.4
2017-Aug-13 20:30N 39°05' E 002°12'612.4
2017-Aug-13 20:00N 39°00' E 002°07'612.4
2017-Aug-13 19:30N 38°55' E 002°02'612.3
2017-Aug-13 19:00N 38°51' E 001°57'612.2
2017-Aug-13 18:30N 38°46' E 001°51'612.0
2017-Aug-13 17:59N 38°41' E 001°46'8012.3
2017-Aug-13 11:25N 37°53' E 000°25'511.3
2017-Aug-13 11:00N 37°50' E 000°20'611.2
2017-Aug-13 10:30N 37°46' E 000°14'3511.4
2017-Aug-13 07:27N 37°26' W 000°21'612.3
2017-Aug-13 06:59N 37°23' W 000°27'812.3
2017-Aug-13 06:22N 37°18' W 000°35'412.4
2017-Aug-13 06:00N 37°15' W 000°39'612.6
2017-Aug-13 05:30N 37°12' W 000°46'712.7
2017-Aug-13 04:56N 37°08' W 000°53'912.5
2017-Aug-13 04:15N 37°02' W 001°02'412.4
2017-Aug-13 03:56N 37°00' W 001°06'20812.7
2017-Aug-12 11:33N 36°01' W 005°14'112.3
2017-Aug-12 11:30N 36°01' W 005°14'510.9
2017-Aug-12 11:00N 36°02' W 005°21'712.5
2017-Aug-12 10:26N 36°09' W 005°23'0 1.0
2017-Aug-12 09:57N 36°09' W 005°22'0 0.0
2017-Aug-12 09:30N 36°09' W 005°22'0 0.0
2017-Aug-12 08:48N 36°09' W 005°22'0 0.0
2017-Aug-12 08:30N 36°09' W 005°22'0 0.0
2017-Aug-12 07:05N 36°09' W 005°22'0 0.0
2017-Aug-12 06:56N 36°09' W 005°22'0 0.0
2017-Aug-12 05:28N 36°09' W 005°22'0 0.0
2017-Aug-12 04:55N 36°09' W 005°22'0 0.0
2017-Aug-12 04:25N 36°09' W 005°22'0 0.0
2017-Aug-12 03:58N 36°09' W 005°22'0 0.0
2017-Aug-12 03:22N 36°09' W 005°22'0 0.0
2017-Aug-12 02:57N 36°09' W 005°22'0 0.0
2017-Aug-12 02:30N 36°09' W 005°22'0 0.0
2017-Aug-12 02:00N 36°09' W 005°22'0 0.0
2017-Aug-12 01:24N 36°09' W 005°22'0 0.0
2017-Aug-12 01:00N 36°09' W 005°22'0 0.0
2017-Aug-12 00:29N 36°09' W 005°22'0 0.0
2017-Aug-11 23:59N 36°09' W 005°22'0 0.0
2017-Aug-11 23:29N 36°09' W 005°22'0 0.0
2017-Aug-11 22:59N 36°09' W 005°22'0 0.0
2017-Aug-11 22:25N 36°09' W 005°22'0 0.0
2017-Aug-11 21:55N 36°09' W 005°22'0 0.0
2017-Aug-11 21:25N 36°09' W 005°22'0 0.0
2017-Aug-11 20:55N 36°09' W 005°22'0 0.0
2017-Aug-11 20:25N 36°09' W 005°22'0 0.0
2017-Aug-11 20:00N 36°09' W 005°22'0 0.0
2017-Aug-11 19:21N 36°09' W 005°22'0 0.0
2017-Aug-11 18:45N 36°09' W 005°22'0 0.0
2017-Aug-11 18:30N 36°09' W 005°22'0 0.0
2017-Aug-11 17:59N 36°09' W 005°22'0 0.0
2017-Aug-11 17:29N 36°09' W 005°22'0 0.0
2017-Aug-11 16:59N 36°09' W 005°22'0 0.0
2017-Aug-11 16:29N 36°09' W 005°22'0 0.0
2017-Aug-11 15:59N 36°09' W 005°22'0 0.0
2017-Aug-11 15:28N 36°09' W 005°22'0 0.0
2017-Aug-11 15:00N 36°09' W 005°22'2 1.9
2017-Aug-11 14:00N 36°07' W 005°23'5 9.6
2017-Aug-11 13:30N 36°02' W 005°23'5 9.8
2017-Aug-11 13:00N 35°58' W 005°27'79590.9
2017-Aug-11 04:16N 26°25' W 016°11'611.2
2017-Aug-11 03:45N 26°30' W 016°07'2111.3
2017-Aug-11 01:55N 26°48' W 015°56'711.7
2017-Aug-11 01:19N 26°54' W 015°52'411.6
2017-Aug-11 00:59N 26°57' W 015°50'6822185.2
2017-Aug-11 00:40N 36°21' W 008°19'311.3
2017-Aug-11 00:22N 36°22' W 008°23'411.3
2017-Aug-11 00:00N 36°23' W 008°27'6663092.2
2017-Aug-10 23:47N 27°09' W 015°42'6642335.7
2017-Aug-10 23:30N 36°25' W 008°34'66037142.8
2017-Aug-10 23:29N 27°12' W 015°40'6581365.4
2017-Aug-10 23:00N 36°26' W 008°41'6525925.7
2017-Aug-10 22:54N 27°18' W 015°37'6501664.1
2017-Aug-10 22:30N 36°28' W 008°48'64522124.2
2017-Aug-10 22:29N 27°22' W 015°34'510.8
2017-Aug-10 22:00N 27°27' W 015°31'6381149015.1
2017-Aug-10 22:00N 36°29' W 008°55'611.8
2017-Aug-10 21:30N 36°31' W 009°02'611.8
2017-Aug-10 21:00N 36°32' W 009°09'612.2
2017-Aug-10 20:30N 36°34' W 009°16'612.5
2017-Aug-10 20:00N 36°38' W 009°22'612.9
2017-Aug-10 19:30N 36°43' W 009°27'612.6
2017-Aug-10 19:00N 36°48' W 009°32'612.2
2017-Aug-10 18:30N 36°54' W 009°34'612.1
2017-Aug-10 18:00N 36°59' W 009°36'612.3
2017-Aug-10 17:30N 37°06' W 009°38'612.1
2017-Aug-10 17:00N 37°11' W 009°39'612.3
2017-Aug-10 16:30N 37°17' W 009°41'612.2
2017-Aug-10 16:00N 37°23' W 009°43'612.7
2017-Aug-10 15:30N 37°29' W 009°45'613.0
2017-Aug-10 15:00N 37°36' W 009°46'612.9
2017-Aug-10 14:30N 37°42' W 009°48'612.9
2017-Aug-10 14:00N 37°48' W 009°50'612.9
2017-Aug-10 13:30N 37°55' W 009°52'612.5
2017-Aug-10 13:00N 38°01' W 009°54'612.5
2017-Aug-10 12:30N 38°07' W 009°55'612.5
2017-Aug-10 12:00N 38°13' W 009°57'612.7
2017-Aug-10 11:30N 38°19' W 009°59'612.5
2017-Aug-10 11:00N 38°25' W 010°01'613.0
2017-Aug-10 10:30N 38°32' W 010°03'612.8
2017-Aug-10 10:00N 38°38' W 010°04'612.8
2017-Aug-10 09:30N 38°44' W 010°06'612.8
2017-Aug-10 09:00N 38°51' W 010°06'612.8
2017-Aug-10 08:30N 38°57' W 010°06'713.3
2017-Aug-10 08:00N 39°04' W 010°06'713.3
2017-Aug-10 07:30N 39°10' W 010°06'612.9
2017-Aug-10 07:00N 39°17' W 010°06'612.4
2017-Aug-10 06:30N 39°23' W 010°06'612.6
2017-Aug-10 06:00N 39°29' W 010°06'612.7
2017-Aug-10 05:30N 39°36' W 010°06'712.7
2017-Aug-10 04:59N 39°42' W 010°06'612.6
2017-Aug-10 04:30N 39°48' W 010°06'  
Track history (hours):
 
Tides and Currents Weather Stations Pressure Air Temp Water Temp Dewpoint Dewpoint Depression Visibility Wind Speed Wind Dir Waves Ship Positions

Normed Antwerpen

Last reported at 2017-Aug-18 01:30 UTC. Time now 2017-Aug-18 02:53 UTC.
Position N 37°42' E 010°22'.

Length 128 m; draft 6.5 m.

Type: Cargo ship. MMSI: 255805824.

Date/timePositionNaut miles runAvg speedWind from/ knotsBaromVisibWave heightAir tempDewpointWater temp
2017-Aug-18 01:30N 37°42' E 010°22'713.5
2017-Aug-18 00:59N 37°45' E 010°14'3813.7
2017-Aug-17 22:13N 38°07' E 009°35'313.5
2017-Aug-17 21:59N 38°09' E 009°32'1613.4
2017-Aug-17 20:46N 38°18' E 009°15'613.5
2017-Aug-17 20:19N 38°22' E 009°09'413.6
2017-Aug-17 20:00N 38°24' E 009°04'713.7
2017-Aug-17 19:30N 38°28' E 008°57'713.7
2017-Aug-17 18:59N 38°33' E 008°50'713.5
2017-Aug-17 18:28N 38°37' E 008°43'613.3
2017-Aug-17 18:00N 38°40' E 008°36'1813.2
2017-Aug-17 16:38N 38°51' E 008°18'213.2
2017-Aug-17 16:29N 38°53' E 008°16'713.1
2017-Aug-17 15:55N 38°59' E 008°11'1412.4
2017-Aug-17 14:46N 39°12' E 008°05'312.4
2017-Aug-17 14:30N 39°16' E 008°05'612.0
2017-Aug-17 13:58N 39°22' E 008°04'712.8
2017-Aug-17 13:23N 39°29' E 008°02'512.9
2017-Aug-17 12:57N 39°35' E 008°01'713.0
2017-Aug-17 12:24N 39°42' E 008°00'2812.9
2017-Aug-17 10:13N 40°10' E 007°55'312.8
2017-Aug-17 09:56N 40°13' E 007°55'2113.4
2017-Aug-17 08:22N 40°34' E 007°51'614.1
2017-Aug-17 07:59N 40°40' E 007°50'11513.5
2017-Aug-16 23:29N 42°34' E 007°31'813.0
2017-Aug-16 22:52N 42°42' E 007°29'613.0
2017-Aug-16 22:26N 42°47' E 007°28'613.1
2017-Aug-16 22:00N 42°53' E 007°27'713.2
2017-Aug-16 21:30N 42°60' E 007°26'613.2
2017-Aug-16 21:00N 43°06' E 007°25'713.2
2017-Aug-16 20:30N 43°13' E 007°24'713.5
2017-Aug-16 20:00N 43°19' E 007°23'813.6
2017-Aug-16 19:24N 43°28' E 007°21'513.7
2017-Aug-16 19:00N 43°33' E 007°20'713.3
2017-Aug-16 18:29N 43°40' E 007°19'2 0.4
2017-Aug-16 13:25N 43°42' E 007°19'0 0.0
2017-Aug-16 12:58N 43°42' E 007°19'0 0.1
2017-Aug-16 11:21N 43°41' E 007°19'0 0.0
2017-Aug-16 10:03N 43°41' E 007°19'0 0.0
2017-Aug-16 10:00N 43°41' E 007°19'0 0.0
2017-Aug-16 09:15N 43°41' E 007°19'0 0.0
2017-Aug-16 08:44N 43°41' E 007°19'0 0.0
2017-Aug-16 04:00N 43°41' E 007°19'0 0.0
2017-Aug-16 03:30N 43°41' E 007°19'0 0.0
2017-Aug-16 02:42N 43°41' E 007°19'0 0.0
2017-Aug-16 02:30N 43°41' E 007°19'0 0.0
2017-Aug-16 01:53N 43°41' E 007°19'0 0.0
2017-Aug-15 20:48N 43°42' E 007°19'0 0.0
2017-Aug-15 20:30N 43°42' E 007°19'0 0.1
2017-Aug-15 19:42N 43°41' E 007°19'0 0.1
2017-Aug-15 19:20N 43°41' E 007°19'0 0.0
2017-Aug-15 18:59N 43°41' E 007°19'2 1.8
2017-Aug-15 18:02N 43°40' E 007°17'0 3.8
2017-Aug-15 17:55N 43°40' E 007°17'410.5
2017-Aug-15 17:30N 43°35' E 007°17'611.9
2017-Aug-15 17:01N 43°30' E 007°16'611.5
2017-Aug-15 16:30N 43°25' E 007°11'611.5
2017-Aug-15 16:00N 43°21' E 007°05'611.5
2017-Aug-15 15:30N 43°17' E 006°60'611.4
2017-Aug-15 15:00N 43°13' E 006°54'611.6
2017-Aug-15 14:30N 43°09' E 006°49'611.6
2017-Aug-15 14:00N 43°05' E 006°43'611.5
2017-Aug-15 13:30N 43°00' E 006°38'611.5
2017-Aug-15 13:00N 42°56' E 006°32'611.4
2017-Aug-15 12:30N 42°52' E 006°27'714.3
2017-Aug-15 12:00N 42°47' E 006°20'714.9
2017-Aug-15 11:30N 42°42' E 006°13'714.4
2017-Aug-15 11:00N 42°36' E 006°06'612.5
2017-Aug-15 10:30N 42°32' E 006°01'612.4
2017-Aug-15 10:00N 42°28' E 005°55'612.3
2017-Aug-15 09:30N 42°23' E 005°49'612.4
2017-Aug-15 09:00N 42°19' E 005°43'612.5
2017-Aug-15 08:30N 42°14' E 005°37'612.7
2017-Aug-15 08:00N 42°10' E 005°31'713.1
2017-Aug-15 07:31N 42°05' E 005°25'612.5
2017-Aug-15 07:00N 42°00' E 005°19'612.6
2017-Aug-15 06:30N 41°56' E 005°13'612.7
2017-Aug-15 06:00N 41°51' E 005°08'612.8
2017-Aug-15 05:31N 41°47' E 005°02'713.0
2017-Aug-15 05:00N 41°42' E 004°55'612.8
2017-Aug-15 04:30N 41°37' E 004°50'612.5
2017-Aug-15 04:00N 41°33' E 004°44'712.7
2017-Aug-15 03:28N 41°28' E 004°37'612.8
2017-Aug-15 03:00N 41°24' E 004°32'612.7
2017-Aug-15 02:30N 41°19' E 004°26'612.7
2017-Aug-15 02:00N 41°15' E 004°20'812.8
2017-Aug-15 01:21N 41°08' E 004°12'513.1
2017-Aug-15 00:58N 41°05' E 004°08'713.1
2017-Aug-15 00:27N 41°00' E 004°02'1012.9
2017-Aug-14 23:39N 40°52' E 003°52'712.7
2017-Aug-14 23:06N 40°48' E 003°46'112.6
2017-Aug-14 23:00N 40°47' E 003°45'2412.4
2017-Aug-14 21:05N 40°30' E 003°23'212.4
2017-Aug-14 20:55N 40°28' E 003°21'512.4
2017-Aug-14 20:30N 40°24' E 003°16'712.5
2017-Aug-14 19:58N 40°19' E 003°10'612.4
2017-Aug-14 19:30N 40°15' E 003°05'612.4
2017-Aug-14 19:00N 40°11' E 002°59'612.1
2017-Aug-14 18:30N 40°07' E 002°54'612.4
2017-Aug-14 18:00N 40°02' E 002°48'612.7
2017-Aug-14 17:30N 39°57' E 002°42'613.0
2017-Aug-14 17:01N 39°53' E 002°36'713.0
2017-Aug-14 16:30N 39°48' E 002°31'713.0
2017-Aug-14 15:57N 39°43' E 002°24'612.8
2017-Aug-14 15:31N 39°39' E 002°19'611.9
2017-Aug-14 14:59N 39°33' E 002°16'612.8
2017-Aug-14 14:30N 39°29' E 002°22'612.6
2017-Aug-14 14:00N 39°26' E 002°29'510.6
2017-Aug-14 13:30N 39°28' E 002°35'611.3
2017-Aug-14 13:00N 39°33' E 002°39'1 1.7
2017-Aug-14 12:28N 39°33' E 002°38'0 0.0
2017-Aug-14 11:55N 39°33' E 002°38'0 0.0
2017-Aug-14 11:28N 39°33' E 002°38'0 0.0
2017-Aug-14 11:00N 39°33' E 002°38'0 0.0
2017-Aug-14 10:30N 39°33' E 002°38'0 0.0
2017-Aug-14 10:00N 39°33' E 002°38'0 0.0
2017-Aug-14 09:30N 39°33' E 002°38'0 0.0
2017-Aug-14 09:00N 39°33' E 002°38'0 0.0
2017-Aug-14 08:29N 39°33' E 002°38'0 0.0
2017-Aug-14 07:59N 39°33' E 002°38'0 0.0
2017-Aug-14 07:29N 39°33' E 002°38'0 0.0
2017-Aug-14 06:59N 39°33' E 002°38'0 0.0
2017-Aug-14 06:28N 39°33' E 002°38'0 0.0
2017-Aug-14 05:58N 39°33' E 002°38'0 0.0
2017-Aug-14 05:28N 39°33' E 002°38'0 0.0
2017-Aug-14 04:58N 39°33' E 002°38'0 0.0
2017-Aug-14 04:28N 39°33' E 002°38'0 0.0
2017-Aug-14 04:00N 39°33' E 002°38'0 0.0
2017-Aug-14 03:30N 39°33' E 002°38'0 0.0
2017-Aug-14 03:00N 39°33' E 002°38'0 0.0
2017-Aug-14 02:30N 39°33' E 002°38'0 0.0
2017-Aug-14 02:00N 39°33' E 002°38'0 0.0
2017-Aug-14 01:29N 39°33' E 002°38'0 0.0
2017-Aug-14 00:59N 39°33' E 002°38'0 0.0
2017-Aug-14 00:29N 39°33' E 002°38'0 0.0
2017-Aug-14 00:00N 39°33' E 002°38'1 2.3
2017-Aug-13 23:30N 39°33' E 002°39'5 9.3
2017-Aug-13 23:00N 39°29' E 002°37'612.3
2017-Aug-13 22:30N 39°24' E 002°33'612.3
2017-Aug-13 22:00N 39°19' E 002°28'612.3
2017-Aug-13 21:30N 39°14' E 002°22'612.4
2017-Aug-13 21:00N 39°10' E 002°17'612.4
2017-Aug-13 20:30N 39°05' E 002°12'612.4
2017-Aug-13 20:00N 39°00' E 002°07'612.4
2017-Aug-13 19:30N 38°55' E 002°02'612.3
2017-Aug-13 19:00N 38°51' E 001°57'612.2
2017-Aug-13 18:30N 38°46' E 001°51'612.0
2017-Aug-13 17:59N 38°41' E 001°46'8012.3
2017-Aug-13 11:25N 37°53' E 000°25'511.3
2017-Aug-13 11:00N 37°50' E 000°20'611.2
2017-Aug-13 10:30N 37°46' E 000°14'3511.4
2017-Aug-13 07:27N 37°26' W 000°21'612.3
2017-Aug-13 06:59N 37°23' W 000°27'812.3
2017-Aug-13 06:22N 37°18' W 000°35'412.4
2017-Aug-13 06:00N 37°15' W 000°39'612.6
2017-Aug-13 05:30N 37°12' W 000°46'712.7
2017-Aug-13 04:56N 37°08' W 000°53'912.5
2017-Aug-13 04:15N 37°02' W 001°02'412.4
2017-Aug-13 03:56N 37°00' W 001°06'20812.7
2017-Aug-12 11:33N 36°01' W 005°14'112.3
2017-Aug-12 11:30N 36°01' W 005°14'510.9
2017-Aug-12 11:00N 36°02' W 005°21'712.5
2017-Aug-12 10:26N 36°09' W 005°23'0 1.0
2017-Aug-12 09:57N 36°09' W 005°22'0 0.0
2017-Aug-12 09:30N 36°09' W 005°22'0 0.0
2017-Aug-12 08:48N 36°09' W 005°22'0 0.0
2017-Aug-12 08:30N 36°09' W 005°22'0 0.0
2017-Aug-12 07:05N 36°09' W 005°22'0 0.0
2017-Aug-12 06:56N 36°09' W 005°22'0 0.0
2017-Aug-12 05:28N 36°09' W 005°22'0 0.0
2017-Aug-12 04:55N 36°09' W 005°22'0 0.0
2017-Aug-12 04:25N 36°09' W 005°22'0 0.0
2017-Aug-12 03:58N 36°09' W 005°22'0 0.0
2017-Aug-12 03:22N 36°09' W 005°22'0 0.0
2017-Aug-12 02:57N 36°09' W 005°22'0 0.0
2017-Aug-12 02:30N 36°09' W 005°22'0 0.0
2017-Aug-12 02:00N 36°09' W 005°22'0 0.0
2017-Aug-12 01:24N 36°09' W 005°22'0 0.0
2017-Aug-12 01:00N 36°09' W 005°22'0 0.0
2017-Aug-12 00:29N 36°09' W 005°22'0 0.0
2017-Aug-11 23:59N 36°09' W 005°22'0 0.0
2017-Aug-11 23:29N 36°09' W 005°22'0 0.0
2017-Aug-11 22:59N 36°09' W 005°22'0 0.0
2017-Aug-11 22:25N 36°09' W 005°22'0 0.0
2017-Aug-11 21:55N 36°09' W 005°22'0 0.0
2017-Aug-11 21:25N 36°09' W 005°22'0 0.0
2017-Aug-11 20:55N 36°09' W 005°22'0 0.0
2017-Aug-11 20:25N 36°09' W 005°22'0 0.0
2017-Aug-11 20:00N 36°09' W 005°22'0 0.0
2017-Aug-11 19:21N 36°09' W 005°22'0 0.0
2017-Aug-11 18:45N 36°09' W 005°22'0 0.0
2017-Aug-11 18:30N 36°09' W 005°22'0 0.0
2017-Aug-11 17:59N 36°09' W 005°22'0 0.0
2017-Aug-11 17:29N 36°09' W 005°22'0 0.0
2017-Aug-11 16:59N 36°09' W 005°22'0 0.0
2017-Aug-11 16:29N 36°09' W 005°22'0 0.0
2017-Aug-11 15:59N 36°09' W 005°22'0 0.0
2017-Aug-11 15:28N 36°09' W 005°22'0 0.0
2017-Aug-11 15:00N 36°09' W 005°22'2 1.9
2017-Aug-11 14:00N 36°07' W 005°23'5 9.6
2017-Aug-11 13:30N 36°02' W 005°23'5 9.8
2017-Aug-11 13:00N 35°58' W 005°27'79590.9
2017-Aug-11 04:16N 26°25' W 016°11'611.2
2017-Aug-11 03:45N 26°30' W 016°07'2111.3
2017-Aug-11 01:55N 26°48' W 015°56'711.7
2017-Aug-11 01:19N 26°54' W 015°52'411.6
2017-Aug-11 00:59N 26°57' W 015°50'6822185.2
2017-Aug-11 00:40N 36°21' W 008°19'311.3
2017-Aug-11 00:22N 36°22' W 008°23'411.3
2017-Aug-11 00:00N 36°23' W 008°27'6663092.2
2017-Aug-10 23:47N 27°09' W 015°42'6642335.7
2017-Aug-10 23:30N 36°25' W 008°34'66037142.8
2017-Aug-10 23:29N 27°12' W 015°40'6581365.4
2017-Aug-10 23:00N 36°26' W 008°41'6525925.7
2017-Aug-10 22:54N 27°18' W 015°37'6501664.1
2017-Aug-10 22:30N 36°28' W 008°48'64522124.2
2017-Aug-10 22:29N 27°22' W 015°34'510.8
2017-Aug-10 22:00N 27°27' W 015°31'6381149015.1
2017-Aug-10 22:00N 36°29' W 008°55'611.8
2017-Aug-10 21:30N 36°31' W 009°02'611.8
2017-Aug-10 21:00N 36°32' W 009°09'612.2
2017-Aug-10 20:30N 36°34' W 009°16'612.5
2017-Aug-10 20:00N 36°38' W 009°22'612.9
2017-Aug-10 19:30N 36°43' W 009°27'612.6
2017-Aug-10 19:00N 36°48' W 009°32'612.2
2017-Aug-10 18:30N 36°54' W 009°34'612.1
2017-Aug-10 18:00N 36°59' W 009°36'612.3
2017-Aug-10 17:30N 37°06' W 009°38'612.1
2017-Aug-10 17:00N 37°11' W 009°39'612.3
2017-Aug-10 16:30N 37°17' W 009°41'612.2
2017-Aug-10 16:00N 37°23' W 009°43'612.7
2017-Aug-10 15:30N 37°29' W 009°45'613.0
2017-Aug-10 15:00N 37°36' W 009°46'612.9
2017-Aug-10 14:30N 37°42' W 009°48'612.9
2017-Aug-10 14:00N 37°48' W 009°50'612.9
2017-Aug-10 13:30N 37°55' W 009°52'612.5
2017-Aug-10 13:00N 38°01' W 009°54'612.5
2017-Aug-10 12:30N 38°07' W 009°55'612.5
2017-Aug-10 12:00N 38°13' W 009°57'612.7
2017-Aug-10 11:30N 38°19' W 009°59'612.5
2017-Aug-10 11:00N 38°25' W 010°01'613.0
2017-Aug-10 10:30N 38°32' W 010°03'612.8
2017-Aug-10 10:00N 38°38' W 010°04'612.8
2017-Aug-10 09:30N 38°44' W 010°06'612.8
2017-Aug-10 09:00N 38°51' W 010°06'612.8
2017-Aug-10 08:30N 38°57' W 010°06'713.3
2017-Aug-10 08:00N 39°04' W 010°06'713.3
2017-Aug-10 07:30N 39°10' W 010°06'612.9
2017-Aug-10 07:00N 39°17' W 010°06'612.4
2017-Aug-10 06:30N 39°23' W 010°06'612.6
2017-Aug-10 06:00N 39°29' W 010°06'612.7
2017-Aug-10 05:30N 39°36' W 010°06'712.7
2017-Aug-10 04:59N 39°42' W 010°06'612.6
2017-Aug-10 04:30N 39°48' W 010°06'  

Dump ship's entire track history